sensor_id;sensor_type;location;lat;lon;timestamp;P1;durP1;ratioP1;P2;durP2;ratioP2
78799;SDS011;68148;55.328;86.106;2023-09-07T00:01:30;33.30;;;6.22;;
78799;SDS011;68148;55.328;86.106;2023-09-07T00:03:57;19.25;;;5.95;;
78799;SDS011;68148;55.328;86.106;2023-09-07T00:06:23;24.85;;;5.70;;
78799;SDS011;68148;55.328;86.106;2023-09-07T00:08:49;33.13;;;7.40;;
78799;SDS011;68148;55.328;86.106;2023-09-07T00:11:14;18.85;;;5.65;;
78799;SDS011;68148;55.328;86.106;2023-09-07T00:13:40;15.63;;;5.68;;
78799;SDS011;68148;55.328;86.106;2023-09-07T00:16:06;22.42;;;5.60;;
78799;SDS011;68148;55.328;86.106;2023-09-07T00:18:32;20.58;;;5.55;;
78799;SDS011;68148;55.328;86.106;2023-09-07T00:20:58;15.40;;;6.18;;
78799;SDS011;68148;55.328;86.106;2023-09-07T00:23:24;26.63;;;6.35;;
78799;SDS011;68148;55.328;86.106;2023-09-07T00:25:50;21.98;;;7.45;;
78799;SDS011;68148;55.328;86.106;2023-09-07T00:28:16;30.58;;;6.78;;
78799;SDS011;68148;55.328;86.106;2023-09-07T00:30:42;18.02;;;6.50;;
78799;SDS011;68148;55.328;86.106;2023-09-07T00:33:08;20.30;;;6.57;;
78799;SDS011;68148;55.328;86.106;2023-09-07T00:35:34;24.35;;;6.13;;
78799;SDS011;68148;55.328;86.106;2023-09-07T00:38:00;18.77;;;6.35;;
78799;SDS011;68148;55.328;86.106;2023-09-07T00:40:26;16.98;;;5.55;;
78799;SDS011;68148;55.328;86.106;2023-09-07T00:42:52;17.02;;;5.32;;
78799;SDS011;68148;55.328;86.106;2023-09-07T00:45:19;18.00;;;5.57;;
78799;SDS011;68148;55.328;86.106;2023-09-07T00:47:45;17.02;;;5.07;;
78799;SDS011;68148;55.328;86.106;2023-09-07T00:50:11;16.38;;;5.38;;
78799;SDS011;68148;55.328;86.106;2023-09-07T00:52:38;14.93;;;5.63;;
78799;SDS011;68148;55.328;86.106;2023-09-07T00:55:07;13.93;;;4.68;;
78799;SDS011;68148;55.328;86.106;2023-09-07T00:57:37;13.10;;;4.60;;
78799;SDS011;68148;55.328;86.106;2023-09-07T01:00:04;20.67;;;4.95;;
78799;SDS011;68148;55.328;86.106;2023-09-07T01:02:31;11.20;;;4.55;;
78799;SDS011;68148;55.328;86.106;2023-09-07T01:04:57;26.00;;;5.70;;
78799;SDS011;68148;55.328;86.106;2023-09-07T01:07:24;26.90;;;5.25;;
78799;SDS011;68148;55.328;86.106;2023-09-07T01:09:56;21.92;;;6.00;;
78799;SDS011;68148;55.328;86.106;2023-09-07T01:12:23;16.80;;;5.32;;
78799;SDS011;68148;55.328;86.106;2023-09-07T01:14:49;29.38;;;6.05;;
78799;SDS011;68148;55.328;86.106;2023-09-07T01:17:14;15.27;;;4.55;;
78799;SDS011;68148;55.328;86.106;2023-09-07T01:19:41;19.55;;;5.60;;
78799;SDS011;68148;55.328;86.106;2023-09-07T01:22:08;16.13;;;5.75;;
78799;SDS011;68148;55.328;86.106;2023-09-07T01:24:34;18.98;;;5.82;;
78799;SDS011;68148;55.328;86.106;2023-09-07T01:27:03;14.25;;;5.38;;
78799;SDS011;68148;55.328;86.106;2023-09-07T01:29:30;13.73;;;5.05;;
78799;SDS011;68148;55.328;86.106;2023-09-07T01:31:56;13.77;;;5.43;;
78799;SDS011;68148;55.328;86.106;2023-09-07T01:34:24;19.42;;;5.00;;
78799;SDS011;68148;55.328;86.106;2023-09-07T01:36:50;16.73;;;5.70;;
78799;SDS011;68148;55.328;86.106;2023-09-07T01:39:16;16.70;;;5.85;;
78799;SDS011;68148;55.328;86.106;2023-09-07T01:41:41;13.43;;;5.05;;
78799;SDS011;68148;55.328;86.106;2023-09-07T01:44:07;15.02;;;5.30;;
78799;SDS011;68148;55.328;86.106;2023-09-07T01:46:33;15.93;;;5.50;;
78799;SDS011;68148;55.328;86.106;2023-09-07T01:48:59;14.68;;;5.80;;
78799;SDS011;68148;55.328;86.106;2023-09-07T01:51:24;19.92;;;5.90;;
78799;SDS011;68148;55.328;86.106;2023-09-07T01:53:50;18.63;;;6.05;;
78799;SDS011;68148;55.328;86.106;2023-09-07T01:56:16;17.33;;;7.15;;
78799;SDS011;68148;55.328;86.106;2023-09-07T01:58:42;17.42;;;7.70;;
78799;SDS011;68148;55.328;86.106;2023-09-07T02:01:19;21.42;;;7.45;;
78799;SDS011;68148;55.328;86.106;2023-09-07T02:03:55;20.83;;;8.07;;
78799;SDS011;68148;55.328;86.106;2023-09-07T02:06:21;22.10;;;9.40;;
78799;SDS011;68148;55.328;86.106;2023-09-07T02:08:49;21.85;;;9.02;;
78799;SDS011;68148;55.328;86.106;2023-09-07T02:11:15;27.65;;;9.95;;
78799;SDS011;68148;55.328;86.106;2023-09-07T02:13:41;25.27;;;11.43;;
78799;SDS011;68148;55.328;86.106;2023-09-07T02:16:07;24.27;;;9.50;;
78799;SDS011;68148;55.328;86.106;2023-09-07T02:18:33;20.75;;;7.57;;
78799;SDS011;68148;55.328;86.106;2023-09-07T02:21:05;11.88;;;5.47;;
78799;SDS011;68148;55.328;86.106;2023-09-07T02:23:31;15.23;;;5.68;;
78799;SDS011;68148;55.328;86.106;2023-09-07T02:25:57;14.35;;;5.30;;
78799;SDS011;68148;55.328;86.106;2023-09-07T02:28:24;17.98;;;5.10;;
78799;SDS011;68148;55.328;86.106;2023-09-07T02:30:51;11.45;;;4.13;;
78799;SDS011;68148;55.328;86.106;2023-09-07T02:33:17;11.80;;;5.40;;
78799;SDS011;68148;55.328;86.106;2023-09-07T02:35:43;14.68;;;5.30;;
78799;SDS011;68148;55.328;86.106;2023-09-07T02:38:09;13.88;;;5.80;;
78799;SDS011;68148;55.328;86.106;2023-09-07T02:40:41;15.32;;;5.38;;
78799;SDS011;68148;55.328;86.106;2023-09-07T02:43:07;16.27;;;5.88;;
78799;SDS011;68148;55.328;86.106;2023-09-07T02:45:34;15.95;;;6.10;;
78799;SDS011;68148;55.328;86.106;2023-09-07T02:48:00;16.35;;;6.22;;
78799;SDS011;68148;55.328;86.106;2023-09-07T02:50:26;14.23;;;5.47;;
78799;SDS011;68148;55.328;86.106;2023-09-07T02:52:53;17.30;;;6.88;;
78799;SDS011;68148;55.328;86.106;2023-09-07T02:55:19;14.50;;;6.10;;
78799;SDS011;68148;55.328;86.106;2023-09-07T02:57:45;15.85;;;6.88;;
78799;SDS011;68148;55.328;86.106;2023-09-07T03:00:11;15.00;;;6.00;;
78799;SDS011;68148;55.328;86.106;2023-09-07T03:02:37;15.45;;;6.10;;
78799;SDS011;68148;55.328;86.106;2023-09-07T03:05:03;13.93;;;6.20;;
78799;SDS011;68148;55.328;86.106;2023-09-07T03:07:32;12.65;;;5.70;;
78799;SDS011;68148;55.328;86.106;2023-09-07T03:09:59;12.05;;;5.57;;
78799;SDS011;68148;55.328;86.106;2023-09-07T03:12:25;19.50;;;6.22;;
78799;SDS011;68148;55.328;86.106;2023-09-07T03:14:52;16.55;;;6.18;;
78799;SDS011;68148;55.328;86.106;2023-09-07T03:17:18;18.83;;;6.65;;
78799;SDS011;68148;55.328;86.106;2023-09-07T03:19:43;19.75;;;7.32;;
78799;SDS011;68148;55.328;86.106;2023-09-07T03:22:09;20.42;;;7.47;;
78799;SDS011;68148;55.328;86.106;2023-09-07T03:24:35;16.95;;;7.00;;
78799;SDS011;68148;55.328;86.106;2023-09-07T03:27:01;13.30;;;5.75;;
78799;SDS011;68148;55.328;86.106;2023-09-07T03:29:29;15.80;;;6.70;;
78799;SDS011;68148;55.328;86.106;2023-09-07T03:31:55;15.45;;;6.30;;
78799;SDS011;68148;55.328;86.106;2023-09-07T03:34:21;17.58;;;6.80;;
78799;SDS011;68148;55.328;86.106;2023-09-07T03:36:46;14.50;;;6.35;;
78799;SDS011;68148;55.328;86.106;2023-09-07T03:39:12;14.82;;;5.60;;
78799;SDS011;68148;55.328;86.106;2023-09-07T03:41:38;11.00;;;5.20;;
78799;SDS011;68148;55.328;86.106;2023-09-07T03:44:04;12.68;;;5.60;;
78799;SDS011;68148;55.328;86.106;2023-09-07T03:46:30;15.10;;;5.95;;
78799;SDS011;68148;55.328;86.106;2023-09-07T03:48:56;15.75;;;5.95;;
78799;SDS011;68148;55.328;86.106;2023-09-07T03:51:21;12.05;;;5.32;;
78799;SDS011;68148;55.328;86.106;2023-09-07T03:53:47;11.30;;;4.72;;
78799;SDS011;68148;55.328;86.106;2023-09-07T03:56:13;14.50;;;6.38;;
78799;SDS011;68148;55.328;86.106;2023-09-07T03:58:39;15.90;;;6.40;;
78799;SDS011;68148;55.328;86.106;2023-09-07T04:01:09;16.17;;;6.45;;
78799;SDS011;68148;55.328;86.106;2023-09-07T04:03:34;15.68;;;5.75;;
78799;SDS011;68148;55.328;86.106;2023-09-07T04:06:00;11.10;;;5.25;;
78799;SDS011;68148;55.328;86.106;2023-09-07T04:08:26;10.65;;;5.53;;
78799;SDS011;68148;55.328;86.106;2023-09-07T04:10:52;14.02;;;5.60;;
78799;SDS011;68148;55.328;86.106;2023-09-07T04:13:18;10.35;;;5.07;;
78799;SDS011;68148;55.328;86.106;2023-09-07T04:15:44;12.10;;;6.32;;
78799;SDS011;68148;55.328;86.106;2023-09-07T04:18:11;9.57;;;4.88;;
78799;SDS011;68148;55.328;86.106;2023-09-07T04:20:40;12.07;;;5.05;;
78799;SDS011;68148;55.328;86.106;2023-09-07T04:23:06;8.48;;;3.85;;
78799;SDS011;68148;55.328;86.106;2023-09-07T04:25:32;13.77;;;6.28;;
78799;SDS011;68148;55.328;86.106;2023-09-07T04:27:58;13.02;;;5.70;;
78799;SDS011;68148;55.328;86.106;2023-09-07T04:30:24;13.60;;;5.30;;
78799;SDS011;68148;55.328;86.106;2023-09-07T04:32:49;10.38;;;4.15;;
78799;SDS011;68148;55.328;86.106;2023-09-07T04:35:15;10.50;;;5.15;;
78799;SDS011;68148;55.328;86.106;2023-09-07T04:37:41;8.57;;;4.00;;
78799;SDS011;68148;55.328;86.106;2023-09-07T04:40:08;6.43;;;2.70;;
78799;SDS011;68148;55.328;86.106;2023-09-07T04:42:34;8.23;;;3.80;;
78799;SDS011;68148;55.328;86.106;2023-09-07T04:45:00;8.32;;;2.63;;
78799;SDS011;68148;55.328;86.106;2023-09-07T04:47:26;6.15;;;3.45;;
78799;SDS011;68148;55.328;86.106;2023-09-07T04:49:52;7.43;;;3.03;;
78799;SDS011;68148;55.328;86.106;2023-09-07T04:52:18;6.85;;;3.22;;
78799;SDS011;68148;55.328;86.106;2023-09-07T04:54:44;8.25;;;4.03;;
78799;SDS011;68148;55.328;86.106;2023-09-07T04:57:10;6.97;;;3.17;;
78799;SDS011;68148;55.328;86.106;2023-09-07T04:59:36;4.97;;;2.60;;
78799;SDS011;68148;55.328;86.106;2023-09-07T05:02:02;7.18;;;2.58;;
78799;SDS011;68148;55.328;86.106;2023-09-07T05:04:28;7.80;;;2.90;;
78799;SDS011;68148;55.328;86.106;2023-09-07T05:06:54;5.60;;;2.53;;
78799;SDS011;68148;55.328;86.106;2023-09-07T05:09:21;4.97;;;2.00;;
78799;SDS011;68148;55.328;86.106;2023-09-07T05:11:46;7.85;;;2.95;;
78799;SDS011;68148;55.328;86.106;2023-09-07T05:14:12;4.60;;;2.05;;
78799;SDS011;68148;55.328;86.106;2023-09-07T05:16:38;6.68;;;2.50;;
78799;SDS011;68148;55.328;86.106;2023-09-07T05:19:03;5.07;;;2.10;;
78799;SDS011;68148;55.328;86.106;2023-09-07T05:21:29;5.47;;;2.45;;
78799;SDS011;68148;55.328;86.106;2023-09-07T05:23:55;10.32;;;3.30;;
78799;SDS011;68148;55.328;86.106;2023-09-07T05:26:21;5.60;;;2.55;;
78799;SDS011;68148;55.328;86.106;2023-09-07T05:28:47;9.48;;;2.65;;
78799;SDS011;68148;55.328;86.106;2023-09-07T05:31:13;10.90;;;2.65;;
78799;SDS011;68148;55.328;86.106;2023-09-07T05:33:39;8.95;;;3.00;;
78799;SDS011;68148;55.328;86.106;2023-09-07T05:36:05;5.18;;;2.20;;
78799;SDS011;68148;55.328;86.106;2023-09-07T05:38:30;7.13;;;2.63;;
78799;SDS011;68148;55.328;86.106;2023-09-07T05:40:56;7.28;;;2.47;;
78799;SDS011;68148;55.328;86.106;2023-09-07T05:43:22;4.88;;;2.33;;
78799;SDS011;68148;55.328;86.106;2023-09-07T05:45:48;5.72;;;2.00;;
78799;SDS011;68148;55.328;86.106;2023-09-07T05:48:13;3.17;;;1.48;;
78799;SDS011;68148;55.328;86.106;2023-09-07T05:50:40;5.22;;;2.03;;
78799;SDS011;68148;55.328;86.106;2023-09-07T05:53:06;7.65;;;2.38;;
78799;SDS011;68148;55.328;86.106;2023-09-07T05:55:31;4.88;;;2.17;;
78799;SDS011;68148;55.328;86.106;2023-09-07T05:57:58;7.25;;;2.03;;
78799;SDS011;68148;55.328;86.106;2023-09-07T06:00:24;3.70;;;1.38;;
78799;SDS011;68148;55.328;86.106;2023-09-07T06:02:50;5.97;;;1.20;;
78799;SDS011;68148;55.328;86.106;2023-09-07T06:05:16;4.32;;;1.80;;
78799;SDS011;68148;55.328;86.106;2023-09-07T06:07:43;6.68;;;1.98;;
78799;SDS011;68148;55.328;86.106;2023-09-07T06:10:09;6.35;;;2.35;;
78799;SDS011;68148;55.328;86.106;2023-09-07T06:12:35;9.25;;;2.97;;
78799;SDS011;68148;55.328;86.106;2023-09-07T06:15:01;5.45;;;2.53;;
78799;SDS011;68148;55.328;86.106;2023-09-07T06:17:27;5.93;;;2.58;;
78799;SDS011;68148;55.328;86.106;2023-09-07T06:19:53;8.05;;;2.50;;
78799;SDS011;68148;55.328;86.106;2023-09-07T06:22:20;5.35;;;2.78;;
78799;SDS011;68148;55.328;86.106;2023-09-07T06:24:46;4.55;;;2.38;;
78799;SDS011;68148;55.328;86.106;2023-09-07T06:27:12;7.35;;;2.63;;
78799;SDS011;68148;55.328;86.106;2023-09-07T06:29:37;8.20;;;2.40;;
78799;SDS011;68148;55.328;86.106;2023-09-07T06:32:03;4.35;;;2.05;;
78799;SDS011;68148;55.328;86.106;2023-09-07T06:34:29;5.10;;;2.22;;
78799;SDS011;68148;55.328;86.106;2023-09-07T06:36:55;6.05;;;2.05;;
78799;SDS011;68148;55.328;86.106;2023-09-07T06:39:21;5.10;;;2.00;;
78799;SDS011;68148;55.328;86.106;2023-09-07T06:41:46;5.95;;;2.53;;
78799;SDS011;68148;55.328;86.106;2023-09-07T06:44:12;4.60;;;2.00;;
78799;SDS011;68148;55.328;86.106;2023-09-07T06:46:38;5.13;;;2.10;;
78799;SDS011;68148;55.328;86.106;2023-09-07T06:49:04;4.25;;;1.80;;
78799;SDS011;68148;55.328;86.106;2023-09-07T06:51:30;7.25;;;2.28;;
78799;SDS011;68148;55.328;86.106;2023-09-07T06:53:56;8.43;;;2.55;;
78799;SDS011;68148;55.328;86.106;2023-09-07T06:56:22;5.97;;;2.55;;
78799;SDS011;68148;55.328;86.106;2023-09-07T06:58:48;6.55;;;2.47;;
78799;SDS011;68148;55.328;86.106;2023-09-07T07:01:14;6.63;;;1.73;;
78799;SDS011;68148;55.328;86.106;2023-09-07T07:03:41;5.78;;;1.77;;
78799;SDS011;68148;55.328;86.106;2023-09-07T07:06:07;6.47;;;2.40;;
78799;SDS011;68148;55.328;86.106;2023-09-07T07:08:33;8.10;;;2.60;;
78799;SDS011;68148;55.328;86.106;2023-09-07T07:10:58;5.70;;;2.30;;
78799;SDS011;68148;55.328;86.106;2023-09-07T07:13:25;8.82;;;3.03;;
78799;SDS011;68148;55.328;86.106;2023-09-07T07:15:51;5.50;;;2.30;;
78799;SDS011;68148;55.328;86.106;2023-09-07T07:18:16;5.50;;;2.33;;
78799;SDS011;68148;55.328;86.106;2023-09-07T07:20:42;4.03;;;1.58;;
78799;SDS011;68148;55.328;86.106;2023-09-07T07:23:09;7.47;;;2.30;;
78799;SDS011;68148;55.328;86.106;2023-09-07T07:25:35;6.20;;;2.45;;
78799;SDS011;68148;55.328;86.106;2023-09-07T07:28:01;5.63;;;2.80;;
78799;SDS011;68148;55.328;86.106;2023-09-07T07:30:31;5.85;;;2.30;;
78799;SDS011;68148;55.328;86.106;2023-09-07T07:32:57;6.82;;;2.30;;
78799;SDS011;68148;55.328;86.106;2023-09-07T07:35:23;5.38;;;2.25;;
78799;SDS011;68148;55.328;86.106;2023-09-07T07:37:49;6.07;;;2.60;;
78799;SDS011;68148;55.328;86.106;2023-09-07T07:40:15;7.28;;;2.70;;
78799;SDS011;68148;55.328;86.106;2023-09-07T07:42:41;5.10;;;2.25;;
78799;SDS011;68148;55.328;86.106;2023-09-07T07:45:07;5.60;;;2.40;;
78799;SDS011;68148;55.328;86.106;2023-09-07T07:47:34;3.53;;;1.85;;
78799;SDS011;68148;55.328;86.106;2023-09-07T07:49:59;4.95;;;2.20;;
78799;SDS011;68148;55.328;86.106;2023-09-07T07:52:25;5.45;;;2.75;;
78799;SDS011;68148;55.328;86.106;2023-09-07T07:54:51;6.75;;;3.00;;
78799;SDS011;68148;55.328;86.106;2023-09-07T07:57:16;10.88;;;3.75;;
78799;SDS011;68148;55.328;86.106;2023-09-07T07:59:42;7.50;;;3.08;;
78799;SDS011;68148;55.328;86.106;2023-09-07T08:02:08;6.88;;;3.60;;
78799;SDS011;68148;55.328;86.106;2023-09-07T08:04:34;7.07;;;3.00;;
78799;SDS011;68148;55.328;86.106;2023-09-07T08:06:59;7.10;;;3.58;;
78799;SDS011;68148;55.328;86.106;2023-09-07T08:09:25;9.32;;;3.33;;
78799;SDS011;68148;55.328;86.106;2023-09-07T08:11:51;6.72;;;3.17;;
78799;SDS011;68148;55.328;86.106;2023-09-07T08:14:17;9.02;;;3.22;;
78799;SDS011;68148;55.328;86.106;2023-09-07T08:16:43;8.13;;;3.97;;
78799;SDS011;68148;55.328;86.106;2023-09-07T08:19:08;20.75;;;10.38;;
78799;SDS011;68148;55.328;86.106;2023-09-07T08:21:34;7.95;;;3.30;;
78799;SDS011;68148;55.328;86.106;2023-09-07T08:24:00;8.57;;;3.83;;
78799;SDS011;68148;55.328;86.106;2023-09-07T08:26:26;9.88;;;4.22;;
78799;SDS011;68148;55.328;86.106;2023-09-07T08:28:52;6.72;;;3.28;;
78799;SDS011;68148;55.328;86.106;2023-09-07T08:31:17;9.52;;;4.05;;
78799;SDS011;68148;55.328;86.106;2023-09-07T08:33:43;10.35;;;3.67;;
78799;SDS011;68148;55.328;86.106;2023-09-07T08:36:09;8.32;;;3.55;;
78799;SDS011;68148;55.328;86.106;2023-09-07T08:38:34;10.20;;;3.70;;
78799;SDS011;68148;55.328;86.106;2023-09-07T08:41:01;6.00;;;3.15;;
78799;SDS011;68148;55.328;86.106;2023-09-07T08:43:28;7.82;;;2.45;;
78799;SDS011;68148;55.328;86.106;2023-09-07T08:45:55;5.43;;;2.20;;
78799;SDS011;68148;55.328;86.106;2023-09-07T08:48:29;7.72;;;2.03;;
78799;SDS011;68148;55.328;86.106;2023-09-07T08:50:56;6.82;;;2.58;;
78799;SDS011;68148;55.328;86.106;2023-09-07T08:53:21;9.30;;;2.22;;
78799;SDS011;68148;55.328;86.106;2023-09-07T08:55:48;4.60;;;1.83;;
78799;SDS011;68148;55.328;86.106;2023-09-07T08:58:14;3.42;;;1.65;;
78799;SDS011;68148;55.328;86.106;2023-09-07T09:00:40;3.33;;;1.52;;
78799;SDS011;68148;55.328;86.106;2023-09-07T09:03:07;3.53;;;1.73;;
78799;SDS011;68148;55.328;86.106;2023-09-07T09:05:34;4.25;;;1.77;;
78799;SDS011;68148;55.328;86.106;2023-09-07T09:08:01;4.28;;;1.83;;
78799;SDS011;68148;55.328;86.106;2023-09-07T09:10:28;4.60;;;2.03;;
78799;SDS011;68148;55.328;86.106;2023-09-07T09:12:54;8.43;;;3.17;;
78799;SDS011;68148;55.328;86.106;2023-09-07T09:15:21;4.85;;;2.35;;
78799;SDS011;68148;55.328;86.106;2023-09-07T09:17:47;5.65;;;2.10;;
78799;SDS011;68148;55.328;86.106;2023-09-07T09:20:25;4.03;;;1.60;;
78799;SDS011;68148;55.328;86.106;2023-09-07T09:22:51;3.40;;;1.50;;
78799;SDS011;68148;55.328;86.106;2023-09-07T09:25:18;2.88;;;1.35;;
78799;SDS011;68148;55.328;86.106;2023-09-07T09:27:44;3.25;;;1.75;;
78799;SDS011;68148;55.328;86.106;2023-09-07T09:30:10;3.25;;;1.42;;
78799;SDS011;68148;55.328;86.106;2023-09-07T09:32:36;3.70;;;1.70;;
78799;SDS011;68148;55.328;86.106;2023-09-07T09:35:02;2.75;;;1.33;;
78799;SDS011;68148;55.328;86.106;2023-09-07T09:37:28;4.65;;;1.67;;
78799;SDS011;68148;55.328;86.106;2023-09-07T09:39:54;3.50;;;1.20;;
78799;SDS011;68148;55.328;86.106;2023-09-07T09:42:22;3.78;;;1.73;;
78799;SDS011;68148;55.328;86.106;2023-09-07T09:44:49;3.25;;;1.45;;
78799;SDS011;68148;55.328;86.106;2023-09-07T09:47:18;2.60;;;1.52;;
78799;SDS011;68148;55.328;86.106;2023-09-07T09:49:45;3.10;;;1.52;;
78799;SDS011;68148;55.328;86.106;2023-09-07T09:52:12;3.53;;;1.50;;
78799;SDS011;68148;55.328;86.106;2023-09-07T09:54:39;2.95;;;1.70;;
78799;SDS011;68148;55.328;86.106;2023-09-07T09:57:06;5.18;;;1.60;;
78799;SDS011;68148;55.328;86.106;2023-09-07T09:59:31;5.40;;;1.80;;
78799;SDS011;68148;55.328;86.106;2023-09-07T10:01:57;3.75;;;1.70;;
78799;SDS011;68148;55.328;86.106;2023-09-07T10:04:23;2.95;;;1.58;;
78799;SDS011;68148;55.328;86.106;2023-09-07T10:06:53;4.55;;;2.00;;
78799;SDS011;68148;55.328;86.106;2023-09-07T10:09:19;3.92;;;2.35;;
78799;SDS011;68148;55.328;86.106;2023-09-07T10:11:50;5.75;;;1.80;;
78799;SDS011;68148;55.328;86.106;2023-09-07T10:14:17;4.68;;;1.83;;
78799;SDS011;68148;55.328;86.106;2023-09-07T10:16:44;4.50;;;1.80;;
78799;SDS011;68148;55.328;86.106;2023-09-07T10:21:42;3.67;;;1.73;;
78799;SDS011;68148;55.328;86.106;2023-09-07T10:24:08;6.50;;;1.90;;
78799;SDS011;68148;55.328;86.106;2023-09-07T10:26:55;5.65;;;2.33;;
78799;SDS011;68148;55.328;86.106;2023-09-07T10:29:45;4.15;;;2.13;;
78799;SDS011;68148;55.328;86.106;2023-09-07T10:32:15;7.07;;;2.45;;
78799;SDS011;68148;55.328;86.106;2023-09-07T10:34:43;8.68;;;4.25;;
78799;SDS011;68148;55.328;86.106;2023-09-07T10:37:13;7.55;;;2.20;;
78799;SDS011;68148;55.328;86.106;2023-09-07T10:39:39;4.38;;;1.83;;
78799;SDS011;68148;55.328;86.106;2023-09-07T10:42:06;5.88;;;1.35;;
78799;SDS011;68148;55.328;86.106;2023-09-07T10:44:31;4.32;;;1.45;;
78799;SDS011;68148;55.328;86.106;2023-09-07T10:46:57;5.32;;;1.70;;
78799;SDS011;68148;55.328;86.106;2023-09-07T10:49:23;4.50;;;1.80;;
78799;SDS011;68148;55.328;86.106;2023-09-07T10:51:49;3.60;;;1.92;;
78799;SDS011;68148;55.328;86.106;2023-09-07T10:56:48;2.80;;;1.30;;
78799;SDS011;68148;55.328;86.106;2023-09-07T10:59:15;3.35;;;1.25;;
78799;SDS011;68148;55.328;86.106;2023-09-07T11:01:43;3.70;;;1.33;;
78799;SDS011;68148;55.328;86.106;2023-09-07T11:04:09;3.45;;;1.67;;
78799;SDS011;68148;55.328;86.106;2023-09-07T11:06:35;5.15;;;1.40;;
78799;SDS011;68148;55.328;86.106;2023-09-07T11:09:02;3.60;;;1.55;;
78799;SDS011;68148;55.328;86.106;2023-09-07T11:11:28;3.80;;;1.38;;
78799;SDS011;68148;55.328;86.106;2023-09-07T11:13:56;4.95;;;1.65;;
78799;SDS011;68148;55.328;86.106;2023-09-07T11:16:24;3.80;;;1.65;;
78799;SDS011;68148;55.328;86.106;2023-09-07T11:18:51;3.70;;;1.70;;
78799;SDS011;68148;55.328;86.106;2023-09-07T11:21:17;4.38;;;1.90;;
78799;SDS011;68148;55.328;86.106;2023-09-07T11:23:42;4.07;;;1.95;;
78799;SDS011;68148;55.328;86.106;2023-09-07T11:26:10;4.10;;;1.55;;
78799;SDS011;68148;55.328;86.106;2023-09-07T11:28:37;9.50;;;1.90;;
78799;SDS011;68148;55.328;86.106;2023-09-07T11:31:03;5.63;;;2.00;;
78799;SDS011;68148;55.328;86.106;2023-09-07T11:33:32;3.97;;;1.90;;
78799;SDS011;68148;55.328;86.106;2023-09-07T11:35:58;9.98;;;2.17;;
78799;SDS011;68148;55.328;86.106;2023-09-07T11:38:35;4.50;;;2.10;;
78799;SDS011;68148;55.328;86.106;2023-09-07T11:41:03;5.55;;;2.00;;
78799;SDS011;68148;55.328;86.106;2023-09-07T11:43:30;9.73;;;2.33;;
78799;SDS011;68148;55.328;86.106;2023-09-07T11:45:55;5.65;;;2.53;;
78799;SDS011;68148;55.328;86.106;2023-09-07T11:48:22;3.65;;;1.67;;
78799;SDS011;68148;55.328;86.106;2023-09-07T11:50:48;4.32;;;1.88;;
78799;SDS011;68148;55.328;86.106;2023-09-07T11:53:13;4.28;;;1.80;;
78799;SDS011;68148;55.328;86.106;2023-09-07T11:55:39;7.85;;;2.08;;
78799;SDS011;68148;55.328;86.106;2023-09-07T11:58:05;13.40;;;2.00;;
78799;SDS011;68148;55.328;86.106;2023-09-07T12:00:31;4.05;;;1.60;;
78799;SDS011;68148;55.328;86.106;2023-09-07T12:02:57;3.15;;;1.50;;
78799;SDS011;68148;55.328;86.106;2023-09-07T12:05:23;3.22;;;1.60;;
78799;SDS011;68148;55.328;86.106;2023-09-07T12:07:49;7.43;;;1.95;;
78799;SDS011;68148;55.328;86.106;2023-09-07T12:10:15;8.63;;;1.75;;
78799;SDS011;68148;55.328;86.106;2023-09-07T12:12:42;5.75;;;2.17;;
78799;SDS011;68148;55.328;86.106;2023-09-07T12:15:09;9.13;;;2.40;;
78799;SDS011;68148;55.328;86.106;2023-09-07T12:17:36;8.52;;;3.10;;
78799;SDS011;68148;55.328;86.106;2023-09-07T12:20:02;5.18;;;2.10;;
78799;SDS011;68148;55.328;86.106;2023-09-07T12:22:28;7.53;;;2.42;;
78799;SDS011;68148;55.328;86.106;2023-09-07T12:24:55;14.43;;;2.30;;
78799;SDS011;68148;55.328;86.106;2023-09-07T12:27:21;5.47;;;1.92;;
78799;SDS011;68148;55.328;86.106;2023-09-07T12:29:47;7.72;;;1.70;;
78799;SDS011;68148;55.328;86.106;2023-09-07T12:32:13;3.38;;;1.40;;
78799;SDS011;68148;55.328;86.106;2023-09-07T12:34:39;3.97;;;1.30;;
78799;SDS011;68148;55.328;86.106;2023-09-07T12:37:05;7.03;;;1.90;;
78799;SDS011;68148;55.328;86.106;2023-09-07T12:39:32;3.67;;;1.65;;
78799;SDS011;68148;55.328;86.106;2023-09-07T12:41:58;3.38;;;1.48;;
78799;SDS011;68148;55.328;86.106;2023-09-07T12:44:24;3.83;;;1.90;;
78799;SDS011;68148;55.328;86.106;2023-09-07T12:46:51;4.82;;;2.03;;
78799;SDS011;68148;55.328;86.106;2023-09-07T12:49:16;4.28;;;1.83;;
78799;SDS011;68148;55.328;86.106;2023-09-07T12:51:45;4.93;;;2.40;;
78799;SDS011;68148;55.328;86.106;2023-09-07T12:56:36;6.60;;;2.30;;
78799;SDS011;68148;55.328;86.106;2023-09-07T12:59:02;8.52;;;1.65;;
78799;SDS011;68148;55.328;86.106;2023-09-07T13:01:28;8.43;;;2.30;;
78799;SDS011;68148;55.328;86.106;2023-09-07T13:03:54;5.93;;;2.38;;
78799;SDS011;68148;55.328;86.106;2023-09-07T13:06:20;6.05;;;2.03;;
78799;SDS011;68148;55.328;86.106;2023-09-07T13:08:46;5.63;;;2.47;;
78799;SDS011;68148;55.328;86.106;2023-09-07T13:11:12;7.07;;;2.40;;
78799;SDS011;68148;55.328;86.106;2023-09-07T13:13:37;9.88;;;3.00;;
78799;SDS011;68148;55.328;86.106;2023-09-07T13:16:04;16.13;;;3.33;;
78799;SDS011;68148;55.328;86.106;2023-09-07T13:18:30;10.20;;;2.88;;
78799;SDS011;68148;55.328;86.106;2023-09-07T13:20:56;18.80;;;3.70;;
78799;SDS011;68148;55.328;86.106;2023-09-07T13:23:23;6.20;;;2.40;;
78799;SDS011;68148;55.328;86.106;2023-09-07T13:25:49;10.00;;;3.22;;
78799;SDS011;68148;55.328;86.106;2023-09-07T13:28:15;5.45;;;2.80;;
78799;SDS011;68148;55.328;86.106;2023-09-07T13:30:41;6.20;;;3.10;;
78799;SDS011;68148;55.328;86.106;2023-09-07T13:33:07;7.22;;;3.28;;
78799;SDS011;68148;55.328;86.106;2023-09-07T13:35:33;8.25;;;3.70;;
78799;SDS011;68148;55.328;86.106;2023-09-07T13:37:59;16.88;;;6.13;;
78799;SDS011;68148;55.328;86.106;2023-09-07T13:40:25;10.10;;;4.57;;
78799;SDS011;68148;55.328;86.106;2023-09-07T13:42:51;12.10;;;4.75;;
78799;SDS011;68148;55.328;86.106;2023-09-07T13:45:17;10.50;;;5.25;;
78799;SDS011;68148;55.328;86.106;2023-09-07T13:47:43;9.52;;;5.40;;
78799;SDS011;68148;55.328;86.106;2023-09-07T13:50:08;12.98;;;5.07;;
78799;SDS011;68148;55.328;86.106;2023-09-07T13:52:37;10.85;;;5.40;;
78799;SDS011;68148;55.328;86.106;2023-09-07T13:55:03;14.55;;;6.20;;
78799;SDS011;68148;55.328;86.106;2023-09-07T13:57:29;13.85;;;6.25;;
78799;SDS011;68148;55.328;86.106;2023-09-07T13:59:55;12.02;;;5.88;;
78799;SDS011;68148;55.328;86.106;2023-09-07T14:02:21;17.23;;;6.38;;
78799;SDS011;68148;55.328;86.106;2023-09-07T14:04:46;15.50;;;5.93;;
78799;SDS011;68148;55.328;86.106;2023-09-07T14:07:12;15.55;;;6.75;;
78799;SDS011;68148;55.328;86.106;2023-09-07T14:09:38;14.73;;;6.10;;
78799;SDS011;68148;55.328;86.106;2023-09-07T14:12:04;13.77;;;5.72;;
78799;SDS011;68148;55.328;86.106;2023-09-07T14:14:30;14.38;;;6.10;;
78799;SDS011;68148;55.328;86.106;2023-09-07T14:16:56;14.18;;;5.70;;
78799;SDS011;68148;55.328;86.106;2023-09-07T14:19:22;14.00;;;6.72;;
78799;SDS011;68148;55.328;86.106;2023-09-07T14:21:50;16.92;;;6.57;;
78799;SDS011;68148;55.328;86.106;2023-09-07T14:24:21;13.65;;;6.32;;
78799;SDS011;68148;55.328;86.106;2023-09-07T14:26:47;12.07;;;5.13;;
78799;SDS011;68148;55.328;86.106;2023-09-07T14:29:15;11.15;;;5.43;;
78799;SDS011;68148;55.328;86.106;2023-09-07T14:31:41;8.23;;;4.43;;